createdAt,value
2022-10-05T00:00:23.165Z,551.55
2022-10-05T00:02:52.632Z,548.10
2022-10-05T00:05:29.256Z,541.42
2022-10-05T00:07:59.298Z,502.08
2022-10-05T00:10:27.695Z,501.00
2022-10-05T00:12:55.804Z,503.80
2022-10-05T00:15:24.589Z,507.95
2022-10-05T00:17:52.948Z,519.85
2022-10-05T00:20:24.094Z,530.03
2022-10-05T00:22:58.699Z,483.63
2022-10-05T00:25:26.705Z,493.52
2022-10-05T00:27:59.408Z,476.40
2022-10-05T00:30:29.155Z,487.25
2022-10-05T00:32:59.639Z,472.15
2022-10-05T00:35:29.383Z,457.45
2022-10-05T00:37:58.739Z,460.85
2022-10-05T00:40:36.810Z,418.08
2022-10-05T00:43:19.539Z,420.35
2022-10-05T00:45:50.152Z,408.08
2022-10-05T00:48:24.513Z,408.38
2022-10-05T00:51:25.539Z,421.33
2022-10-05T00:54:18.950Z,451.92
2022-10-05T00:57:00.253Z,432.65
2022-10-05T00:59:46.232Z,443.77
2022-10-05T01:02:17.228Z,449.23
2022-10-05T01:04:50.239Z,449.50
2022-10-05T01:07:26.087Z,440.50
2022-10-05T01:10:00.556Z,443.20
2022-10-05T01:12:34.553Z,455.80
2022-10-05T01:15:06.990Z,446.58
2022-10-05T01:17:39.202Z,451.70
2022-10-05T01:20:24.912Z,442.20
2022-10-05T01:23:24.073Z,418.67
2022-10-05T01:26:02.685Z,446.67
2022-10-05T01:28:33.992Z,462.95
2022-10-05T01:31:06.364Z,428.77
2022-10-05T01:33:37.239Z,425.38
2022-10-05T01:36:11.336Z,433.70
2022-10-05T01:38:45.164Z,436.63
2022-10-05T01:41:20.337Z,451.20
2022-10-05T01:43:52.057Z,474.08
2022-10-05T01:46:25.988Z,356.85
2022-10-05T01:49:07.399Z,301.92
2022-10-05T01:51:40.143Z,330.13
2022-10-05T01:54:15.734Z,322.42
2022-10-05T01:56:48.396Z,311.88
2022-10-05T01:59:27.867Z,383.00
2022-10-05T02:01:59.584Z,479.05
2022-10-05T02:05:00.356Z,518.10
2022-10-05T02:07:23.642Z,553.97
2022-10-05T02:09:55.774Z,554.65
2022-10-05T02:12:25.344Z,545.97
2022-10-05T02:14:59.605Z,532.78
2022-10-05T02:17:32.653Z,571.35
2022-10-05T02:20:03.299Z,566.63
2022-10-05T02:22:34.990Z,573.25
2022-10-05T02:25:05.919Z,566.30
2022-10-05T02:27:35.950Z,573.40
2022-10-05T02:30:11.694Z,574.65
2022-10-05T02:32:48.593Z,558.78
2022-10-05T02:35:20.161Z,573.28
2022-10-05T02:37:57.431Z,567.45
2022-10-05T02:40:34.467Z,559.55
2022-10-05T02:43:07.614Z,575.50
2022-10-05T02:45:42.858Z,573.63
2022-10-05T02:48:14.648Z,576.20
2022-10-05T02:50:48.521Z,588.60
2022-10-05T02:53:24.030Z,589.15
2022-10-05T02:56:00.161Z,576.53
2022-10-05T02:58:30.269Z,573.53
2022-10-05T03:01:04.305Z,564.35
2022-10-05T03:03:36.451Z,573.20
2022-10-05T03:06:06.725Z,572.15
2022-10-05T03:08:37.025Z,571.50
2022-10-05T03:11:09.563Z,581.25
2022-10-05T03:13:46.201Z,538.60
2022-10-05T03:16:25.505Z,563.55
2022-10-05T03:19:03.941Z,560.08
2022-10-05T03:21:46.461Z,553.55
2022-10-05T03:24:27.636Z,579.15
2022-10-05T03:26:59.285Z,621.35
2022-10-05T03:29:32.217Z,566.53
2022-10-05T03:32:07.142Z,594.20
2022-10-05T03:34:39.521Z,590.20
2022-10-05T03:37:11.864Z,567.63
2022-10-05T03:39:42.264Z,558.83
2022-10-05T03:42:17.169Z,559.22
2022-10-05T03:44:51.392Z,568.00
2022-10-05T03:47:30.270Z,561.85
2022-10-05T03:50:15.121Z,527.17
2022-10-05T03:52:47.534Z,522.60
2022-10-05T03:55:21.005Z,513.55
2022-10-05T03:57:51.321Z,538.03
2022-10-05T04:00:23.182Z,523.45
2022-10-05T04:02:56.227Z,547.08
2022-10-05T04:05:26.553Z,552.85
2022-10-05T04:07:58.002Z,553.63
2022-10-05T04:10:28.648Z,558.40
2022-10-05T04:13:00.364Z,554.40
2022-10-05T04:15:33.577Z,544.47
2022-10-05T04:18:07.593Z,547.13
2022-10-05T04:20:42.078Z,553.78
2022-10-05T04:23:18.853Z,516.67
2022-10-05T04:25:50.401Z,505.02
2022-10-05T04:28:21.671Z,523.00
2022-10-05T04:30:50.806Z,547.88
2022-10-05T04:33:20.100Z,568.63
2022-10-05T04:35:59.317Z,561.75
2022-10-05T04:38:36.142Z,585.35
2022-10-05T04:41:17.558Z,582.85
2022-10-05T04:43:54.557Z,590.50
2022-10-05T04:46:34.747Z,590.03
2022-10-05T04:49:23.299Z,575.55
2022-10-05T04:51:55.776Z,576.85
2022-10-05T04:54:30.828Z,569.45
2022-10-05T04:57:01.693Z,568.30
2022-10-05T05:00:05.725Z,581.08
2022-10-05T05:02:44.664Z,584.00
2022-10-05T05:05:29.304Z,571.10
2022-10-05T05:08:04.806Z,566.83
2022-10-05T05:10:55.265Z,576.85
2022-10-05T05:13:45.465Z,567.80
2022-10-05T05:16:18.985Z,567.60
2022-10-05T05:19:01.181Z,566.33
2022-10-05T05:21:38.006Z,571.50
2022-10-05T05:24:11.380Z,561.50
2022-10-05T05:26:53.529Z,579.03
2022-10-05T05:29:28.440Z,568.42
2022-10-05T05:32:02.848Z,564.13
2022-10-05T05:34:41.991Z,583.30
2022-10-05T05:37:14.858Z,580.67
2022-10-05T05:39:50.144Z,591.15
2022-10-05T05:42:28.008Z,583.15
2022-10-05T05:44:58.181Z,576.45
2022-10-05T05:47:35.312Z,565.28
2022-10-05T05:50:19.839Z,563.17
2022-10-05T05:52:54.477Z,580.17
2022-10-05T05:55:29.894Z,569.40
2022-10-05T05:58:03.548Z,576.33
2022-10-05T06:00:35.654Z,581.28
2022-10-05T06:03:08.023Z,543.85
2022-10-05T06:05:40.848Z,542.42
2022-10-05T06:08:15.060Z,493.92
2022-10-05T06:10:46.519Z,451.77
2022-10-05T06:13:18.280Z,505.02
2022-10-05T06:15:48.566Z,494.25
2022-10-05T06:18:19.495Z,506.40
2022-10-05T06:20:52.249Z,519.90
2022-10-05T06:23:26.676Z,549.53
2022-10-05T06:26:12.846Z,531.92
2022-10-05T06:28:40.773Z,535.47
2022-10-05T06:31:19.747Z,544.10
2022-10-05T06:33:51.417Z,529.45
2022-10-05T06:36:29.246Z,554.13
2022-10-05T06:39:38.436Z,586.13
2022-10-05T06:42:18.036Z,586.28
2022-10-05T06:44:53.414Z,602.63
2022-10-05T06:47:30.487Z,599.28
2022-10-05T06:50:06.936Z,600.50
2022-10-05T06:52:42.455Z,588.45
2022-10-05T06:55:17.659Z,599.85
2022-10-05T06:58:01.363Z,569.90
2022-10-05T07:00:33.319Z,533.45
2022-10-05T07:03:06.464Z,529.70
2022-10-05T07:05:54.024Z,534.10
2022-10-05T07:08:29.227Z,535.78
2022-10-05T07:11:06.688Z,538.65
2022-10-05T07:13:52.006Z,452.98
2022-10-05T07:16:26.406Z,543.45
2022-10-05T07:19:04.407Z,552.92
2022-10-05T07:21:39.498Z,524.58
2022-10-05T07:24:22.728Z,523.45
2022-10-05T07:26:58.118Z,514.85
2022-10-05T07:29:30.762Z,512.13
2022-10-05T07:32:04.842Z,529.75
2022-10-05T07:34:44.056Z,537.90
2022-10-05T07:37:31.755Z,563.90
2022-10-05T07:40:05.953Z,545.95
2022-10-05T07:42:51.987Z,510.35
2022-10-05T07:45:27.936Z,515.38
2022-10-05T07:47:57.293Z,529.50
2022-10-05T07:50:28.884Z,529.78
2022-10-05T07:52:58.884Z,536.13
2022-10-05T07:55:28.036Z,552.53
2022-10-05T07:58:04.819Z,556.95
2022-10-05T08:00:47.924Z,562.65
2022-10-05T08:03:22.133Z,558.83
2022-10-05T08:05:50.167Z,556.08
2022-10-05T08:08:23.013Z,545.88
2022-10-05T08:10:55.176Z,538.40
2022-10-05T08:13:29.653Z,554.35
2022-10-05T08:16:00.773Z,553.60
2022-10-05T08:18:40.920Z,562.15
2022-10-05T08:21:12.158Z,542.00
2022-10-05T08:23:44.683Z,555.85
2022-10-05T08:26:18.836Z,552.97
2022-10-05T08:28:53.128Z,567.13
2022-10-05T08:31:24.392Z,551.30
2022-10-05T08:33:58.715Z,555.78
2022-10-05T08:36:44.856Z,562.38
2022-10-05T08:39:17.179Z,560.40
2022-10-05T08:42:24.880Z,565.40
2022-10-05T08:45:37.399Z,561.88
2022-10-05T08:48:31.490Z,580.15
2022-10-05T08:51:21.605Z,562.25
2022-10-05T08:54:20.697Z,583.17
2022-10-05T08:56:52.637Z,588.20
2022-10-05T09:00:10.454Z,570.88
2022-10-05T09:03:01.153Z,550.88
2022-10-05T09:05:58.435Z,574.33
2022-10-05T09:08:52.611Z,574.95
2022-10-05T09:11:26.393Z,579.10
2022-10-05T09:14:26.715Z,573.05
2022-10-05T09:17:19.097Z,574.08
2022-10-05T09:20:01.690Z,570.75
2022-10-05T09:22:55.280Z,573.28
2022-10-05T09:25:24.541Z,589.17
2022-10-05T09:27:57.892Z,570.42
2022-10-05T09:30:49.578Z,571.50
2022-10-05T09:33:45.527Z,566.00
2022-10-05T09:36:52.801Z,579.28
2022-10-05T09:39:36.538Z,574.78
2022-10-05T09:42:31.531Z,560.70
2022-10-05T09:45:39.344Z,561.00
2022-10-05T09:48:51.534Z,562.83
2022-10-05T09:51:49.588Z,582.78
2022-10-05T09:55:08.340Z,572.30
2022-10-05T09:57:53.362Z,547.58
2022-10-05T10:00:26.514Z,582.30
2022-10-05T10:03:29.682Z,605.53
2022-10-05T10:06:10.439Z,618.58
2022-10-05T10:08:47.062Z,617.67
2022-10-05T10:11:25.096Z,626.65
2022-10-05T10:14:05.570Z,610.88
2022-10-05T10:16:44.810Z,610.20
2022-10-05T10:19:33.655Z,612.92
2022-10-05T10:22:53.524Z,611.30
2022-10-05T10:25:34.592Z,618.35
2022-10-05T10:28:23.484Z,609.78
2022-10-05T10:31:07.508Z,618.17
2022-10-05T10:34:07.273Z,619.15
2022-10-05T10:36:51.949Z,610.67
2022-10-05T10:39:25.898Z,583.88
2022-10-05T10:42:08.108Z,529.13
2022-10-05T10:44:58.942Z,561.33
2022-10-05T10:47:49.494Z,524.17
2022-10-05T10:50:46.051Z,525.15
2022-10-05T10:53:29.068Z,521.08
2022-10-05T10:56:10.175Z,525.03
2022-10-05T10:59:03.171Z,537.08
2022-10-05T11:01:34.460Z,437.45
2022-10-05T11:04:29.679Z,422.75
2022-10-05T11:07:18.553Z,415.73
2022-10-05T11:10:03.152Z,415.15
2022-10-05T11:12:50.938Z,468.55
2022-10-05T11:16:01.989Z,481.50
2022-10-05T11:18:36.398Z,481.13
2022-10-05T11:21:21.975Z,472.55
2022-10-05T11:24:11.221Z,506.73
2022-10-05T11:26:52.318Z,485.15
2022-10-05T11:29:44.990Z,484.58
2022-10-05T11:32:27.531Z,501.75
2022-10-05T11:35:24.694Z,489.08
2022-10-05T11:38:08.230Z,499.05
2022-10-05T11:41:07.639Z,518.20
2022-10-05T11:43:59.608Z,551.40
2022-10-05T11:46:35.705Z,550.72
2022-10-05T11:49:30.268Z,534.00
2022-10-05T11:52:07.825Z,548.25
2022-10-05T11:57:39.677Z,567.33
2022-10-05T12:00:15.469Z,583.42
2022-10-05T12:03:18.914Z,555.05
2022-10-05T12:06:08.515Z,591.00
2022-10-05T12:08:44.391Z,603.05
2022-10-05T12:11:33.155Z,595.85
2022-10-05T12:14:05.752Z,590.75
2022-10-05T12:16:37.239Z,576.65
2022-10-05T12:19:13.820Z,587.10
2022-10-05T12:21:48.743Z,609.13
2022-10-05T12:24:26.852Z,607.00
2022-10-05T12:27:00.229Z,610.47
2022-10-05T12:29:30.654Z,611.47
2022-10-05T12:32:00.560Z,613.30
2022-10-05T12:34:37.851Z,626.35
2022-10-05T12:37:11.287Z,630.30
2022-10-05T12:39:46.731Z,632.88
2022-10-05T12:42:27.253Z,640.50
2022-10-05T12:45:18.683Z,640.35
2022-10-05T12:47:59.567Z,647.08
2022-10-05T12:54:33.303Z,649.50
2022-10-05T12:57:07.147Z,646.70
2022-10-05T12:59:42.040Z,633.25
2022-10-05T13:02:22.298Z,636.00
2022-10-05T13:04:56.995Z,628.30
2022-10-05T13:07:48.028Z,627.17
2022-10-05T13:10:29.244Z,629.85
2022-10-05T13:13:11.126Z,636.90
2022-10-05T13:15:47.161Z,640.90
2022-10-05T13:18:23.888Z,642.53
2022-10-05T13:21:02.806Z,636.90
2022-10-05T13:23:39.599Z,646.92
2022-10-05T13:26:12.628Z,633.25
2022-10-05T13:28:46.425Z,642.42
2022-10-05T13:31:19.702Z,638.60
2022-10-05T13:34:07.200Z,641.05
2022-10-05T13:36:43.652Z,640.72
2022-10-05T13:39:27.809Z,638.53
2022-10-05T13:42:03.757Z,641.15
2022-10-05T13:44:39.711Z,636.47
2022-10-05T13:47:14.096Z,636.67
2022-10-05T13:49:49.938Z,646.08
2022-10-05T13:52:30.296Z,654.88
2022-10-05T13:55:03.121Z,615.83
2022-10-05T13:57:46.749Z,635.42
2022-10-05T14:00:22.749Z,631.65
2022-10-05T14:02:57.260Z,637.10
2022-10-05T14:05:26.958Z,634.50
2022-10-05T14:07:57.286Z,627.22
2022-10-05T14:10:35.239Z,637.67
2022-10-05T14:13:19.642Z,642.45
2022-10-05T14:16:04.639Z,643.13
2022-10-05T14:18:34.983Z,643.15
2022-10-05T14:21:07.061Z,643.20
2022-10-05T14:23:35.776Z,638.05
2022-10-05T14:26:04.657Z,645.30
2022-10-05T14:28:39.203Z,639.88
2022-10-05T14:31:15.583Z,650.67
2022-10-05T14:33:43.926Z,634.08
2022-10-05T14:36:17.392Z,635.28
2022-10-05T14:38:57.795Z,633.47
2022-10-05T14:41:27.706Z,659.22
2022-10-05T14:44:02.839Z,639.92
2022-10-05T14:46:33.283Z,637.60
2022-10-05T14:49:22.448Z,645.13
2022-10-05T14:51:51.407Z,647.25
2022-10-05T14:54:28.818Z,646.58
2022-10-05T14:57:07.300Z,640.33
2022-10-05T15:00:05.909Z,638.25
2022-10-05T15:02:58.293Z,644.83
2022-10-05T15:05:31.582Z,647.45
2022-10-05T15:08:09.228Z,645.70
2022-10-05T15:10:43.021Z,638.55
2022-10-05T15:13:16.716Z,634.95
2022-10-05T15:15:54.050Z,625.88
2022-10-05T15:18:34.946Z,629.10
2022-10-05T15:21:24.943Z,637.75
2022-10-05T15:23:57.633Z,643.45
2022-10-05T15:26:37.258Z,635.47
2022-10-05T15:29:16.192Z,626.45
2022-10-05T15:31:56.343Z,625.67
2022-10-05T15:34:31.136Z,626.67
2022-10-05T15:37:08.120Z,630.50
2022-10-05T15:39:43.285Z,633.28
2022-10-05T15:42:14.723Z,636.15
2022-10-05T15:44:55.840Z,635.70
2022-10-05T15:47:35.112Z,639.35
2022-10-05T15:50:14.128Z,629.83
2022-10-05T15:52:49.222Z,639.42
2022-10-05T15:55:35.236Z,636.53
2022-10-05T15:58:25.396Z,636.60
2022-10-05T16:01:02.158Z,633.28
2022-10-05T16:03:43.965Z,636.90
2022-10-05T16:06:42.062Z,632.33
2022-10-05T16:09:29.294Z,629.40
2022-10-05T16:12:19.277Z,627.28
2022-10-05T16:14:56.845Z,632.58
2022-10-05T16:17:51.132Z,632.85
2022-10-05T16:20:30.329Z,633.58
2022-10-05T16:23:07.192Z,623.17
2022-10-05T16:25:54.489Z,634.90
2022-10-05T16:28:33.652Z,626.85
2022-10-05T16:31:09.546Z,625.10
2022-10-05T16:33:54.624Z,618.97
2022-10-05T16:36:37.576Z,620.78
2022-10-05T16:39:15.010Z,621.95
2022-10-05T16:41:56.250Z,640.85
2022-10-05T16:44:38.725Z,633.08
2022-10-05T16:47:27.756Z,631.42
2022-10-05T16:50:04.368Z,625.72
2022-10-05T16:52:38.591Z,632.22
2022-10-05T16:55:14.065Z,627.95
2022-10-05T16:57:47.130Z,621.58
2022-10-05T17:00:22.434Z,625.22
2022-10-05T17:03:11.727Z,628.85
2022-10-05T17:05:58.637Z,628.28
2022-10-05T17:08:46.019Z,636.42
2022-10-05T17:11:26.942Z,620.00
2022-10-05T17:14:10.265Z,638.67
2022-10-05T17:16:49.110Z,621.42
2022-10-05T17:19:38.780Z,618.92
2022-10-05T17:22:14.305Z,622.38
2022-10-05T17:24:55.047Z,633.08
2022-10-05T17:27:33.539Z,626.05
2022-10-05T17:30:35.209Z,626.17
2022-10-05T17:33:19.613Z,626.53
2022-10-05T17:36:13.517Z,621.28
2022-10-05T17:38:49.908Z,623.72
2022-10-05T17:41:21.955Z,630.42
2022-10-05T17:44:24.419Z,632.65
2022-10-05T17:46:54.909Z,628.90
2022-10-05T17:50:09.538Z,629.35
2022-10-05T17:52:58.761Z,620.05
2022-10-05T17:56:03.710Z,626.38
2022-10-05T17:59:04.249Z,622.38
2022-10-05T18:01:34.936Z,620.78
2022-10-05T18:04:39.658Z,632.10
2022-10-05T18:07:22.351Z,617.13
2022-10-05T18:09:59.198Z,617.53
2022-10-05T18:12:47.034Z,625.83
2022-10-05T18:15:46.424Z,626.28
2022-10-05T18:18:57.393Z,624.10
2022-10-05T18:21:29.931Z,623.05
2022-10-05T18:24:46.239Z,618.90
2022-10-05T18:28:00.889Z,626.85
2022-10-05T18:30:40.660Z,625.22
2022-10-05T18:33:38.237Z,632.70
2022-10-05T18:36:21.201Z,625.33
2022-10-05T18:38:56.948Z,628.85
2022-10-05T18:41:34.613Z,618.83
2022-10-05T18:44:20.361Z,613.78
2022-10-05T18:46:55.406Z,621.13
2022-10-05T18:49:38.936Z,620.15
2022-10-05T18:52:13.641Z,619.90
2022-10-05T18:54:54.922Z,630.03
2022-10-05T18:57:46.870Z,621.45
2022-10-05T19:00:18.538Z,618.50
2022-10-05T19:02:57.250Z,623.00
2022-10-05T19:05:48.067Z,615.10
2022-10-05T19:08:27.283Z,614.80
2022-10-05T19:10:59.170Z,622.50
2022-10-05T19:13:41.559Z,619.20
2022-10-05T19:16:27.766Z,623.33
2022-10-05T19:19:30.763Z,618.38
2022-10-05T19:22:07.613Z,619.08
2022-10-05T19:24:48.471Z,621.85
2022-10-05T19:27:26.172Z,618.83
2022-10-05T19:30:33.842Z,615.13
2022-10-05T19:33:42.919Z,629.22
2022-10-05T19:36:23.495Z,630.63
2022-10-05T19:39:03.453Z,615.60
2022-10-05T19:41:45.233Z,612.53
2022-10-05T19:44:20.885Z,604.92
2022-10-05T19:47:00.009Z,608.45
2022-10-05T19:49:48.896Z,616.38
2022-10-05T19:52:28.441Z,616.67
2022-10-05T19:55:13.996Z,609.88
2022-10-05T19:57:49.904Z,621.78
2022-10-05T20:00:24.728Z,620.42
2022-10-05T20:02:53.859Z,615.47
2022-10-05T20:05:23.134Z,610.28
2022-10-05T20:07:52.659Z,609.03
2022-10-05T20:10:29.223Z,609.40
2022-10-05T20:12:59.994Z,613.33
2022-10-05T20:15:47.654Z,614.55
2022-10-05T20:18:56.325Z,609.85
2022-10-05T20:21:42.333Z,610.10
2022-10-05T20:24:13.676Z,613.15
2022-10-05T20:27:00.841Z,611.22
2022-10-05T20:29:29.222Z,609.42
2022-10-05T20:31:57.970Z,614.83
2022-10-05T20:34:25.954Z,607.72
2022-10-05T20:36:53.734Z,603.65
2022-10-05T20:39:23.287Z,607.05
2022-10-05T20:41:51.037Z,617.25
2022-10-05T20:44:18.800Z,617.85
2022-10-05T20:46:47.478Z,646.88
2022-10-05T20:49:15.389Z,614.47
2022-10-05T20:51:43.372Z,613.65
2022-10-05T20:54:11.218Z,617.35
2022-10-05T20:56:42.608Z,606.90
2022-10-05T20:59:10.821Z,611.70
2022-10-05T21:01:38.629Z,611.08
2022-10-05T21:04:06.986Z,620.17
2022-10-05T21:06:35.146Z,616.20
2022-10-05T21:09:03.325Z,611.72
2022-10-05T21:11:31.401Z,613.75
2022-10-05T21:14:04.896Z,618.92
2022-10-05T21:16:34.177Z,617.45
2022-10-05T21:19:02.042Z,616.60
2022-10-05T21:21:29.886Z,621.03
2022-10-05T21:24:00.778Z,621.92
2022-10-05T21:26:29.879Z,621.10
2022-10-05T21:28:58.373Z,624.42
2022-10-05T21:31:28.802Z,616.67
2022-10-05T21:33:57.514Z,621.90
2022-10-05T21:36:25.701Z,617.80
2022-10-05T21:38:55.288Z,620.90
2022-10-05T21:41:24.128Z,614.30
2022-10-05T21:43:51.986Z,626.00
2022-10-05T21:46:23.224Z,622.30
2022-10-05T21:48:52.460Z,622.88
2022-10-05T21:51:21.037Z,621.90
2022-10-05T21:53:52.962Z,610.83
2022-10-05T21:56:24.094Z,616.20
2022-10-05T21:58:53.109Z,622.22
2022-10-05T22:01:22.903Z,616.13
2022-10-05T22:03:52.519Z,622.35
2022-10-05T22:06:20.366Z,617.58
2022-10-05T22:08:48.247Z,614.60
2022-10-05T22:11:18.771Z,619.00
2022-10-05T22:13:48.822Z,624.70
2022-10-05T22:16:18.470Z,617.53
2022-10-05T22:18:46.566Z,610.45
2022-10-05T22:21:16.845Z,612.20
2022-10-05T22:23:46.915Z,620.97
2022-10-05T22:26:17.679Z,619.03
2022-10-05T22:28:46.763Z,618.75
2022-10-05T22:31:15.473Z,614.90
2022-10-05T22:33:43.712Z,616.95
2022-10-05T22:36:11.934Z,622.80
2022-10-05T22:38:41.092Z,613.63
2022-10-05T22:41:12.248Z,612.83
2022-10-05T22:43:40.692Z,605.75
2022-10-05T22:46:10.195Z,600.00
2022-10-05T22:48:38.222Z,611.88
2022-10-05T22:51:06.526Z,609.85
2022-10-05T22:53:34.744Z,620.47
2022-10-05T22:56:08.948Z,615.13
2022-10-05T22:58:37.984Z,624.08
2022-10-05T23:01:07.884Z,611.60
2022-10-05T23:03:36.225Z,607.00
2022-10-05T23:06:06.620Z,611.75
2022-10-05T23:08:35.647Z,618.80
2022-10-05T23:11:04.030Z,614.85
2022-10-05T23:13:33.758Z,613.42
2022-10-05T23:16:08.474Z,618.40
2022-10-05T23:18:36.557Z,619.38
2022-10-05T23:21:05.738Z,618.35
2022-10-05T23:23:33.808Z,621.63
2022-10-05T23:26:02.883Z,623.83
2022-10-05T23:28:31.852Z,626.85
2022-10-05T23:31:02.345Z,622.15
2022-10-05T23:33:31.068Z,620.58
2022-10-05T23:36:00.524Z,620.75
2022-10-05T23:38:29.567Z,627.78
2022-10-05T23:40:59.889Z,621.00
2022-10-05T23:43:28.459Z,624.97
2022-10-05T23:45:57.367Z,618.53
2022-10-05T23:48:27.476Z,617.78
2022-10-05T23:50:56.532Z,626.15
2022-10-05T23:53:24.782Z,626.33
2022-10-05T23:55:53.389Z,617.55
2022-10-05T23:58:21.757Z,623.33
